createdAt,value
2022-11-29T00:01:01.838Z,6.13
2022-11-29T00:03:29.210Z,6.25
2022-11-29T00:05:56.133Z,7.07
2022-11-29T00:08:24.202Z,5.03
2022-11-29T00:10:51.073Z,7.35
2022-11-29T00:13:18.007Z,5.57
2022-11-29T00:15:44.595Z,5.63
2022-11-29T00:18:11.153Z,6.63
2022-11-29T00:20:39.252Z,4.95
2022-11-29T00:23:05.930Z,5.07
2022-11-29T00:25:32.558Z,8.32
2022-11-29T00:27:59.068Z,8.77
2022-11-29T00:30:25.701Z,8.40
2022-11-29T00:32:52.313Z,8.80
2022-11-29T00:35:18.900Z,8.75
2022-11-29T00:37:45.428Z,8.23
2022-11-29T00:40:12.289Z,8.38
2022-11-29T00:42:38.830Z,5.75
2022-11-29T00:45:05.820Z,9.20
2022-11-29T00:47:32.400Z,4.50
2022-11-29T00:49:58.933Z,7.75
2022-11-29T00:52:25.457Z,6.93
2022-11-29T00:54:52.015Z,6.28
2022-11-29T00:57:18.571Z,6.97
2022-11-29T00:59:45.120Z,5.13
2022-11-29T01:02:11.744Z,6.93
2022-11-29T01:04:38.496Z,6.57
2022-11-29T01:07:05.134Z,7.72
2022-11-29T01:09:31.694Z,6.30
2022-11-29T01:11:58.274Z,6.00
2022-11-29T01:14:24.801Z,6.10
2022-11-29T01:16:51.417Z,5.95
2022-11-29T01:19:18.038Z,6.13
2022-11-29T01:21:44.600Z,5.38
2022-11-29T01:24:11.253Z,7.10
2022-11-29T01:26:37.941Z,7.60
2022-11-29T01:29:04.479Z,7.57
2022-11-29T01:31:36.027Z,7.00
2022-11-29T01:34:04.112Z,5.90
2022-11-29T01:36:30.893Z,6.53
2022-11-29T01:39:00.604Z,7.65
2022-11-29T01:41:30.306Z,5.07
2022-11-29T01:44:01.665Z,6.20
2022-11-29T01:46:30.669Z,5.38
2022-11-29T01:49:09.874Z,5.32
2022-11-29T01:51:41.477Z,6.40
2022-11-29T01:54:09.772Z,5.60
2022-11-29T01:56:37.938Z,5.68
2022-11-29T01:59:08.825Z,5.38
2022-11-29T02:01:36.665Z,8.00
2022-11-29T02:04:04.021Z,4.60
2022-11-29T02:06:30.750Z,5.95
2022-11-29T02:08:57.441Z,5.60
2022-11-29T02:11:51.608Z,5.25
2022-11-29T02:14:33.288Z,5.70
2022-11-29T02:17:21.208Z,7.65
2022-11-29T02:20:15.508Z,5.03
2022-11-29T02:22:58.015Z,4.32
2022-11-29T02:25:43.171Z,4.15
2022-11-29T02:29:00.453Z,5.05
2022-11-29T02:32:05.514Z,5.97
2022-11-29T02:34:47.373Z,5.05
2022-11-29T02:37:51.561Z,5.38
2022-11-29T02:40:41.105Z,4.68
2022-11-29T02:43:16.545Z,3.95
2022-11-29T02:46:18.625Z,5.25
2022-11-29T02:51:30.351Z,4.80
2022-11-29T02:54:51.736Z,3.30
2022-11-29T02:57:20.864Z,4.50
2022-11-29T03:00:15.709Z,3.47
2022-11-29T03:02:51.417Z,7.20
2022-11-29T03:05:51.754Z,3.25
2022-11-29T03:08:27.728Z,3.65
2022-11-29T03:11:09.558Z,4.68
2022-11-29T03:16:49.296Z,2.67
2022-11-29T03:19:47.284Z,2.90
2022-11-29T03:22:43.154Z,2.28
2022-11-29T03:25:22.570Z,2.92
2022-11-29T03:28:01.325Z,3.78
2022-11-29T03:30:32.537Z,5.32
2022-11-29T03:33:24.821Z,3.20
2022-11-29T03:36:07.486Z,3.25
2022-11-29T03:38:37.177Z,3.30
2022-11-29T03:41:09.408Z,3.20
2022-11-29T03:43:57.343Z,3.83
2022-11-29T03:46:47.827Z,2.70
2022-11-29T03:49:25.468Z,2.42
2022-11-29T03:51:55.095Z,3.65
2022-11-29T03:54:29.619Z,2.45
2022-11-29T03:56:56.543Z,1.08
2022-11-29T03:59:32.257Z,1.63
2022-11-29T04:02:36.762Z,1.00
2022-11-29T04:05:48.347Z,1.00
2022-11-29T04:08:27.112Z,2.75
2022-11-29T04:11:31.178Z,1.05
2022-11-29T04:14:28.886Z,2.47
2022-11-29T04:17:31.236Z,1.23
2022-11-29T04:20:19.170Z,1.15
2022-11-29T04:23:10.671Z,0.90
2022-11-29T04:26:05.363Z,1.30
2022-11-29T04:28:44.107Z,1.58
2022-11-29T04:31:38.247Z,0.70
2022-11-29T04:34:26.385Z,1.27
2022-11-29T04:37:26.791Z,1.70
2022-11-29T04:40:01.992Z,1.17
2022-11-29T04:42:36.808Z,2.50
2022-11-29T04:45:35.449Z,1.25
2022-11-29T04:48:04.991Z,1.50
2022-11-29T04:50:37.447Z,1.65
2022-11-29T04:53:13.080Z,1.55
2022-11-29T04:56:08.249Z,1.80
2022-11-29T04:58:46.179Z,1.38
2022-11-29T05:01:34.106Z,2.22
2022-11-29T05:04:28.097Z,1.73
2022-11-29T05:07:08.737Z,1.20
2022-11-29T05:10:00.919Z,2.00
2022-11-29T05:12:30.491Z,2.47
2022-11-29T05:15:21.263Z,2.42
2022-11-29T05:18:04.059Z,1.85
2022-11-29T05:21:00.484Z,1.58
2022-11-29T05:23:59.263Z,2.15
2022-11-29T05:26:37.461Z,2.63
2022-11-29T05:29:16.475Z,3.35
2022-11-29T05:32:28.542Z,2.28
2022-11-29T05:35:01.006Z,2.22
2022-11-29T05:37:39.158Z,1.20
2022-11-29T05:40:38.399Z,1.90
2022-11-29T05:43:11.267Z,3.67
2022-11-29T05:45:55.885Z,3.78
2022-11-29T05:48:45.384Z,3.55
2022-11-29T05:51:50.717Z,2.63
2022-11-29T05:54:52.774Z,1.98
2022-11-29T05:57:29.186Z,2.78
2022-11-29T06:00:01.932Z,1.67
2022-11-29T06:02:53.400Z,2.92
2022-11-29T06:05:24.796Z,2.70
2022-11-29T06:08:03.569Z,2.92
2022-11-29T06:10:35.080Z,2.47
2022-11-29T06:13:21.970Z,1.70
2022-11-29T06:16:01.301Z,1.73
2022-11-29T06:18:52.465Z,2.05
2022-11-29T06:21:45.200Z,2.33
2022-11-29T06:24:56.263Z,3.20
2022-11-29T06:27:50.666Z,3.80
2022-11-29T06:30:23.080Z,2.97
2022-11-29T06:33:17.994Z,4.57
2022-11-29T06:35:48.245Z,3.72
2022-11-29T06:38:27.410Z,1.88
2022-11-29T06:41:01.367Z,3.17
2022-11-29T06:43:28.950Z,2.25
2022-11-29T06:46:04.284Z,3.25
2022-11-29T06:48:38.471Z,4.63
2022-11-29T06:51:49.595Z,2.13
2022-11-29T06:54:31.974Z,2.38
2022-11-29T06:57:01.153Z,1.73
2022-11-29T07:00:01.744Z,1.95
2022-11-29T07:02:43.399Z,2.67
2022-11-29T07:05:21.323Z,1.48
2022-11-29T07:07:48.806Z,3.05
2022-11-29T07:10:17.726Z,1.98
2022-11-29T07:12:46.331Z,1.55
2022-11-29T07:15:19.220Z,3.30
2022-11-29T07:18:13.732Z,1.50
2022-11-29T07:21:15.663Z,2.42
2022-11-29T07:24:04.085Z,5.72
2022-11-29T07:26:43.762Z,2.08
2022-11-29T07:29:40.667Z,2.75
2022-11-29T07:32:25.669Z,2.05
2022-11-29T07:35:03.997Z,1.80
2022-11-29T07:37:48.559Z,2.13
2022-11-29T07:40:24.459Z,3.25
2022-11-29T07:42:54.023Z,3.42
2022-11-29T07:45:39.934Z,2.65
2022-11-29T07:48:06.989Z,1.73
2022-11-29T07:50:35.325Z,3.22
2022-11-29T07:53:01.974Z,2.10
2022-11-29T07:55:29.661Z,2.00
2022-11-29T07:57:56.262Z,2.42
2022-11-29T08:00:23.084Z,2.50
2022-11-29T08:02:50.454Z,1.55
2022-11-29T08:05:17.344Z,1.27
2022-11-29T08:07:44.215Z,4.25
2022-11-29T08:10:16.705Z,2.47
2022-11-29T08:12:45.750Z,1.42
2022-11-29T08:15:12.929Z,2.45
2022-11-29T08:17:39.697Z,1.73
2022-11-29T08:20:07.748Z,1.25
2022-11-29T08:22:34.796Z,1.77
2022-11-29T08:25:01.950Z,1.08
2022-11-29T08:27:28.841Z,1.30
2022-11-29T08:29:55.382Z,2.60
2022-11-29T08:32:21.968Z,3.05
2022-11-29T08:34:48.656Z,2.20
2022-11-29T08:37:15.216Z,2.03
2022-11-29T08:39:41.793Z,2.00
2022-11-29T08:42:08.365Z,2.83
2022-11-29T08:44:35.006Z,2.97
2022-11-29T08:47:20.173Z,2.05
2022-11-29T08:50:01.649Z,2.53
2022-11-29T08:52:48.359Z,3.55
2022-11-29T08:55:15.565Z,2.47
2022-11-29T08:57:42.201Z,1.85
2022-11-29T09:00:10.438Z,2.15
2022-11-29T09:02:37.521Z,4.47
2022-11-29T09:05:06.005Z,3.05
2022-11-29T09:07:32.751Z,2.33
2022-11-29T09:10:00.950Z,2.67
2022-11-29T09:12:27.530Z,2.35
2022-11-29T09:14:54.092Z,2.95
2022-11-29T09:17:20.672Z,3.70
2022-11-29T09:19:47.280Z,1.58
2022-11-29T09:22:13.851Z,1.70
2022-11-29T09:24:40.473Z,1.98
2022-11-29T09:27:07.045Z,2.60
2022-11-29T09:29:33.612Z,2.63
2022-11-29T09:32:00.243Z,2.88
2022-11-29T09:34:26.818Z,2.22
2022-11-29T09:36:53.396Z,4.25
2022-11-29T09:39:20.002Z,2.42
2022-11-29T09:42:04.861Z,1.80
2022-11-29T09:44:40.375Z,2.35
2022-11-29T09:47:19.010Z,2.20
2022-11-29T09:49:52.316Z,4.05
2022-11-29T09:52:50.481Z,2.80
2022-11-29T09:55:32.240Z,4.03
2022-11-29T09:58:01.151Z,2.85
2022-11-29T10:00:29.514Z,3.45
2022-11-29T10:03:09.300Z,2.53
2022-11-29T10:05:42.970Z,3.70
2022-11-29T10:08:23.867Z,2.60
2022-11-29T10:10:57.274Z,2.13
2022-11-29T10:13:35.591Z,1.88
2022-11-29T10:16:20.845Z,2.80
2022-11-29T10:18:54.432Z,4.00
2022-11-29T10:21:25.919Z,3.55
2022-11-29T10:23:56.345Z,3.70
2022-11-29T10:26:25.923Z,2.30
2022-11-29T10:28:57.536Z,2.92
2022-11-29T10:31:31.923Z,2.58
2022-11-29T10:34:02.552Z,4.32
2022-11-29T10:36:55.099Z,3.05
2022-11-29T10:39:39.717Z,2.95
2022-11-29T10:42:35.126Z,3.13
2022-11-29T10:45:02.399Z,2.92
2022-11-29T10:47:29.281Z,2.17
2022-11-29T10:49:56.818Z,2.28
2022-11-29T10:52:24.103Z,3.08
2022-11-29T10:54:58.580Z,2.78
2022-11-29T10:57:25.560Z,2.25
2022-11-29T10:59:59.635Z,2.65
2022-11-29T11:02:27.710Z,2.53
2022-11-29T11:04:54.539Z,3.17
2022-11-29T11:07:25.755Z,2.45
2022-11-29T11:09:56.769Z,2.17
2022-11-29T11:12:30.086Z,2.53
2022-11-29T11:15:15.997Z,2.45
2022-11-29T11:17:58.847Z,1.88
2022-11-29T11:20:28.867Z,2.20
2022-11-29T11:23:02.511Z,4.47
2022-11-29T11:25:38.959Z,1.88
2022-11-29T11:28:21.232Z,3.22
2022-11-29T11:30:55.706Z,1.88
2022-11-29T11:33:27.004Z,2.35
2022-11-29T11:36:11.957Z,2.67
2022-11-29T11:38:42.066Z,2.75
2022-11-29T11:41:46.846Z,2.75
2022-11-29T11:44:50.945Z,2.45
2022-11-29T11:47:24.413Z,1.73
2022-11-29T11:50:00.163Z,1.90
2022-11-29T11:52:28.816Z,2.25
2022-11-29T11:54:59.115Z,1.35
2022-11-29T11:57:26.723Z,1.42
2022-11-29T12:00:00.816Z,1.38
2022-11-29T12:02:40.557Z,2.28
2022-11-29T12:05:16.030Z,0.60
2022-11-29T12:10:37.695Z,1.63
2022-11-29T12:13:04.948Z,2.47
2022-11-29T12:15:39.948Z,1.45
2022-11-29T12:18:37.975Z,2.55
2022-11-29T12:21:14.183Z,4.68
2022-11-29T12:24:10.499Z,2.22
2022-11-29T12:29:30.043Z,2.22
2022-11-29T12:32:30.195Z,4.05
2022-11-29T12:35:23.589Z,3.97
2022-11-29T12:37:59.762Z,1.55
2022-11-29T12:40:32.635Z,3.53
2022-11-29T12:43:28.877Z,3.03
2022-11-29T12:46:01.316Z,1.10
2022-11-29T12:48:48.172Z,3.13
2022-11-29T12:51:29.924Z,1.17
2022-11-29T12:56:48.220Z,1.10
2022-11-29T12:59:22.585Z,1.33
2022-11-29T13:02:26.927Z,3.13
2022-11-29T13:04:59.789Z,2.40
2022-11-29T13:07:31.422Z,0.82
2022-11-29T13:10:17.653Z,0.90
2022-11-29T13:12:53.235Z,0.85
2022-11-29T13:15:23.647Z,0.88
2022-11-29T13:17:58.731Z,0.60
2022-11-29T13:20:30.285Z,1.60
2022-11-29T13:23:08.920Z,1.65
2022-11-29T13:25:42.413Z,1.17
2022-11-29T13:28:24.079Z,0.63
2022-11-29T13:30:52.450Z,0.68
2022-11-29T13:33:32.276Z,0.85
2022-11-29T13:36:24.683Z,0.50
2022-11-29T13:39:03.371Z,0.73
2022-11-29T13:41:54.885Z,1.40
2022-11-29T13:44:38.568Z,1.55
2022-11-29T13:47:13.873Z,0.50
2022-11-29T13:49:55.898Z,0.93
2022-11-29T13:53:03.187Z,0.80
2022-11-29T13:55:31.261Z,0.90
2022-11-29T13:58:18.292Z,1.98
2022-11-29T14:00:45.209Z,1.50
2022-11-29T14:03:27.744Z,2.75
2022-11-29T14:06:03.370Z,1.48
2022-11-29T14:09:10.303Z,1.55
2022-11-29T14:11:37.010Z,1.67
2022-11-29T14:14:15.701Z,1.20
2022-11-29T14:16:42.246Z,1.48
2022-11-29T14:19:08.728Z,1.88
2022-11-29T14:22:03.269Z,1.98
2022-11-29T14:24:32.907Z,1.27
2022-11-29T14:27:14.496Z,1.15
2022-11-29T14:29:50.203Z,1.25
2022-11-29T14:32:26.831Z,1.38
2022-11-29T14:35:11.647Z,1.10
2022-11-29T14:38:03.324Z,1.38
2022-11-29T14:41:11.890Z,2.22
2022-11-29T14:43:41.546Z,3.08
2022-11-29T14:46:13.871Z,1.00
2022-11-29T14:48:58.707Z,0.80
2022-11-29T14:51:28.709Z,1.25
2022-11-29T14:54:19.511Z,2.22
2022-11-29T14:56:47.374Z,1.30
2022-11-29T14:59:39.019Z,2.85
2022-11-29T15:02:25.395Z,3.35
2022-11-29T15:04:55.756Z,2.10
2022-11-29T15:07:29.864Z,2.25
2022-11-29T15:10:01.246Z,2.50
2022-11-29T15:12:35.182Z,2.08
2022-11-29T15:15:16.000Z,2.25
2022-11-29T15:18:02.564Z,2.60
2022-11-29T15:20:38.152Z,3.03
2022-11-29T15:23:09.705Z,1.65
2022-11-29T15:25:36.525Z,3.33
2022-11-29T15:28:05.903Z,1.70
2022-11-29T15:30:34.143Z,6.53
2022-11-29T15:33:04.046Z,6.25
2022-11-29T15:35:32.791Z,2.15
2022-11-29T15:37:59.460Z,2.42
2022-11-29T15:40:35.143Z,2.50
2022-11-29T15:43:16.889Z,3.28
2022-11-29T15:45:55.574Z,1.67
2022-11-29T15:48:22.240Z,2.35
2022-11-29T15:50:58.935Z,2.50
2022-11-29T15:53:31.356Z,4.68
2022-11-29T15:56:00.170Z,2.83
2022-11-29T15:58:30.931Z,4.40
2022-11-29T16:01:00.363Z,3.10
2022-11-29T16:03:30.650Z,3.30
2022-11-29T16:06:08.330Z,3.72
2022-11-29T16:08:41.775Z,4.15
2022-11-29T16:11:15.883Z,6.82
2022-11-29T16:14:00.946Z,4.13
2022-11-29T16:16:28.807Z,3.40
2022-11-29T16:19:07.465Z,4.13
2022-11-29T16:21:34.077Z,3.10
2022-11-29T16:24:12.614Z,2.97
2022-11-29T16:26:45.516Z,3.97
2022-11-29T16:29:24.548Z,3.63
2022-11-29T16:31:52.087Z,5.18
2022-11-29T16:34:26.865Z,1.90
2022-11-29T16:37:18.541Z,3.08
2022-11-29T16:39:48.182Z,3.75
2022-11-29T16:42:29.987Z,2.25
2022-11-29T16:47:31.772Z,2.53
2022-11-29T16:50:01.460Z,4.03
2022-11-29T16:52:33.038Z,3.83
2022-11-29T16:54:59.869Z,4.53
2022-11-29T16:57:28.762Z,3.85
2022-11-29T16:59:55.355Z,3.97
2022-11-29T17:02:21.970Z,4.43
2022-11-29T17:04:51.529Z,4.30
2022-11-29T17:07:26.092Z,4.72
2022-11-29T17:09:52.927Z,5.65
2022-11-29T17:12:19.581Z,2.38
2022-11-29T17:14:46.357Z,4.85
2022-11-29T17:17:17.336Z,5.97
2022-11-29T17:19:44.319Z,8.38
2022-11-29T17:22:14.130Z,7.07
2022-11-29T17:24:44.947Z,7.10
2022-11-29T17:27:14.409Z,10.13
2022-11-29T17:29:40.945Z,9.02
2022-11-29T17:32:07.549Z,9.77
2022-11-29T17:34:34.574Z,10.15
2022-11-29T17:39:47.270Z,9.90
2022-11-29T17:42:14.093Z,10.32
2022-11-29T17:44:40.932Z,12.55
2022-11-29T17:47:07.505Z,15.52
2022-11-29T17:49:34.062Z,15.65
2022-11-29T17:52:00.646Z,13.27
2022-11-29T17:54:27.221Z,10.27
2022-11-29T17:56:53.802Z,11.65
2022-11-29T17:59:20.534Z,13.75
2022-11-29T18:01:47.634Z,12.95
2022-11-29T18:04:15.111Z,11.82
2022-11-29T18:06:42.051Z,11.45
2022-11-29T18:09:11.084Z,12.23
2022-11-29T18:11:48.772Z,11.60
2022-11-29T18:14:19.079Z,13.80
2022-11-29T18:16:45.917Z,11.80
2022-11-29T18:19:15.133Z,12.27
2022-11-29T18:21:42.024Z,15.07
2022-11-29T18:24:09.236Z,13.18
2022-11-29T18:26:37.577Z,10.75
2022-11-29T18:29:05.474Z,12.90
2022-11-29T18:31:34.604Z,9.80
2022-11-29T18:34:03.086Z,11.60
2022-11-29T18:36:32.386Z,12.05
2022-11-29T18:39:06.549Z,15.88
2022-11-29T18:41:33.390Z,15.07
2022-11-29T18:44:06.778Z,14.10
2022-11-29T18:46:36.486Z,12.15
2022-11-29T18:49:05.665Z,13.50
2022-11-29T18:51:32.990Z,16.17
2022-11-29T18:53:59.761Z,15.75
2022-11-29T18:56:29.053Z,13.13
2022-11-29T18:59:07.907Z,16.02
2022-11-29T19:01:40.995Z,19.58
2022-11-29T19:04:09.996Z,15.75
2022-11-29T19:06:39.982Z,17.52
2022-11-29T19:09:11.378Z,18.67
2022-11-29T19:11:38.500Z,16.10
2022-11-29T19:14:11.245Z,17.20
2022-11-29T19:16:39.569Z,15.73
2022-11-29T19:19:06.642Z,15.10
2022-11-29T19:21:34.565Z,13.95
2022-11-29T19:24:07.592Z,17.95
2022-11-29T19:26:37.158Z,17.70
2022-11-29T19:29:03.748Z,17.88
2022-11-29T19:31:30.591Z,18.90
2022-11-29T19:33:57.742Z,17.00
2022-11-29T19:36:27.120Z,18.40
2022-11-29T19:38:54.563Z,20.05
2022-11-29T19:41:25.643Z,19.70
2022-11-29T19:43:52.846Z,17.90
2022-11-29T19:46:25.069Z,20.30
2022-11-29T19:48:53.304Z,20.63
2022-11-29T19:51:20.843Z,23.48
2022-11-29T19:53:51.206Z,22.58
2022-11-29T19:56:17.840Z,22.02
2022-11-29T19:58:44.470Z,20.95
2022-11-29T20:01:16.523Z,23.70
2022-11-29T20:03:43.433Z,22.05
2022-11-29T20:06:10.924Z,26.30
2022-11-29T20:08:38.259Z,25.40
2022-11-29T20:11:12.663Z,24.35
2022-11-29T20:13:40.893Z,25.20
2022-11-29T20:16:10.627Z,24.13
2022-11-29T20:18:39.871Z,29.50
2022-11-29T20:21:08.351Z,25.08
2022-11-29T20:23:34.985Z,28.70
2022-11-29T20:26:01.761Z,23.85
2022-11-29T20:28:28.539Z,28.83
2022-11-29T20:30:56.633Z,25.33
2022-11-29T20:33:25.226Z,26.52
2022-11-29T20:36:03.624Z,25.42
2022-11-29T20:38:59.371Z,24.25
2022-11-29T20:41:41.485Z,24.88
2022-11-29T20:44:14.065Z,22.35
2022-11-29T20:46:40.834Z,25.17
2022-11-29T20:49:08.342Z,29.00
2022-11-29T20:51:43.312Z,27.73
2022-11-29T20:54:11.871Z,28.30
2022-11-29T20:56:38.422Z,23.65
2022-11-29T20:59:05.027Z,26.58
2022-11-29T21:01:31.620Z,35.22
2022-11-29T21:03:58.295Z,27.55
2022-11-29T21:06:24.932Z,26.42
2022-11-29T21:08:53.833Z,30.08
2022-11-29T21:11:20.907Z,25.17
2022-11-29T21:13:47.890Z,30.50
2022-11-29T21:16:14.909Z,27.88
2022-11-29T21:18:41.890Z,28.70
2022-11-29T21:21:32.827Z,21.20
2022-11-29T21:23:59.348Z,23.30
2022-11-29T21:26:41.801Z,26.77
2022-11-29T21:29:35.434Z,22.77
2022-11-29T21:32:02.936Z,27.20
2022-11-29T21:34:29.803Z,27.27
2022-11-29T21:36:59.168Z,27.20
2022-11-29T21:39:33.731Z,21.58
2022-11-29T21:42:00.341Z,28.40
2022-11-29T21:44:26.893Z,24.27
2022-11-29T21:46:54.294Z,25.52
2022-11-29T21:49:20.922Z,25.23
2022-11-29T21:51:47.470Z,31.15
2022-11-29T21:54:14.022Z,25.73
2022-11-29T21:56:40.564Z,22.55
2022-11-29T21:59:07.157Z,24.60
2022-11-29T22:01:33.943Z,23.45
2022-11-29T22:04:00.955Z,23.90
2022-11-29T22:06:29.207Z,26.67
2022-11-29T22:08:59.909Z,24.83
2022-11-29T22:11:34.083Z,29.20
2022-11-29T22:14:15.586Z,21.45
2022-11-29T22:16:52.405Z,23.58
2022-11-29T22:19:21.682Z,28.67
2022-11-29T22:21:50.586Z,20.35
2022-11-29T22:24:19.309Z,24.08
2022-11-29T22:26:46.546Z,22.45
2022-11-29T22:29:14.276Z,23.02
2022-11-29T22:31:43.049Z,22.92
2022-11-29T22:34:09.713Z,22.83
2022-11-29T22:36:37.821Z,26.50
2022-11-29T22:39:05.879Z,22.30
2022-11-29T22:41:33.969Z,25.60
2022-11-29T22:44:00.512Z,23.30
2022-11-29T22:46:28.577Z,21.42
2022-11-29T22:48:56.847Z,23.80
2022-11-29T22:51:25.859Z,30.02
2022-11-29T22:53:57.225Z,19.85
2022-11-29T22:56:26.795Z,23.27
2022-11-29T22:58:53.512Z,24.83
2022-11-29T23:01:25.015Z,24.17
2022-11-29T23:03:54.614Z,26.23
2022-11-29T23:06:24.169Z,29.85
2022-11-29T23:08:52.922Z,28.15
2022-11-29T23:11:22.197Z,29.20
2022-11-29T23:13:49.079Z,32.92
2022-11-29T23:16:19.109Z,26.05
2022-11-29T23:18:46.291Z,25.45
2022-11-29T23:21:12.789Z,27.30
2022-11-29T23:23:39.874Z,22.60
2022-11-29T23:26:07.772Z,20.55
2022-11-29T23:28:35.320Z,23.75
2022-11-29T23:31:02.033Z,28.70
2022-11-29T23:33:28.725Z,21.73
2022-11-29T23:36:03.325Z,21.50
2022-11-29T23:38:30.244Z,20.30
2022-11-29T23:40:56.896Z,21.95
2022-11-29T23:43:23.804Z,20.33
2022-11-29T23:45:50.680Z,22.20
2022-11-29T23:48:17.494Z,25.48
2022-11-29T23:50:44.140Z,18.60
2022-11-29T23:53:15.344Z,24.05
2022-11-29T23:55:42.648Z,19.60
2022-11-29T23:58:10.769Z,23.60
